sensor_id;sensor_type;location;lat;lon;timestamp;pressure;altitude;pressure_sealevel;temperature;humidity
61805;BME280;47725;47.912;7.356;2023-11-19T00:03:31;99398.49;;;14.10;58.40
61805;BME280;47725;47.912;7.356;2023-11-19T00:07:31;99394.45;;;14.11;58.22
61805;BME280;47725;47.912;7.356;2023-11-19T00:11:31;99388.37;;;14.11;58.27
61805;BME280;47725;47.912;7.356;2023-11-19T00:15:31;99380.24;;;14.11;58.36
61805;BME280;47725;47.912;7.356;2023-11-19T00:19:31;99368.13;;;14.17;58.85
61805;BME280;47725;47.912;7.356;2023-11-19T00:23:31;99355.35;;;14.28;58.54
61805;BME280;47725;47.912;7.356;2023-11-19T00:27:31;99346.70;;;14.43;57.93
61805;BME280;47725;47.912;7.356;2023-11-19T00:31:31;99336.27;;;14.60;57.63
61805;BME280;47725;47.912;7.356;2023-11-19T00:35:31;99323.28;;;14.78;57.17
61805;BME280;47725;47.912;7.356;2023-11-19T00:39:31;99305.27;;;14.93;57.03
61805;BME280;47725;47.912;7.356;2023-11-19T00:43:31;99292.78;;;15.07;56.78
61805;BME280;47725;47.912;7.356;2023-11-19T00:47:31;99283.50;;;15.20;56.23
61805;BME280;47725;47.912;7.356;2023-11-19T00:51:31;99277.66;;;15.31;56.43
61805;BME280;47725;47.912;7.356;2023-11-19T00:55:31;99267.36;;;15.39;56.24
61805;BME280;47725;47.912;7.356;2023-11-19T00:59:31;99261.75;;;15.44;56.07
61805;BME280;47725;47.912;7.356;2023-11-19T01:03:31;99258.56;;;15.49;56.23
61805;BME280;47725;47.912;7.356;2023-11-19T01:07:31;99257.19;;;15.55;56.24
61805;BME280;47725;47.912;7.356;2023-11-19T01:11:31;99257.92;;;15.61;55.80
61805;BME280;47725;47.912;7.356;2023-11-19T01:15:31;99253.30;;;15.65;56.01
61805;BME280;47725;47.912;7.356;2023-11-19T01:19:31;99248.69;;;15.68;55.89
61805;BME280;47725;47.912;7.356;2023-11-19T01:23:31;99250.16;;;15.72;55.76
61805;BME280;47725;47.912;7.356;2023-11-19T01:27:31;99252.66;;;15.76;55.53
61805;BME280;47725;47.912;7.356;2023-11-19T01:31:31;99254.81;;;15.80;55.74
61805;BME280;47725;47.912;7.356;2023-11-19T01:35:31;99257.18;;;15.86;55.48
61805;BME280;47725;47.912;7.356;2023-11-19T01:39:31;99256.56;;;15.89;55.38
61805;BME280;47725;47.912;7.356;2023-11-19T01:43:32;99261.05;;;15.92;55.73
61805;BME280;47725;47.912;7.356;2023-11-19T01:47:31;99268.22;;;15.96;55.62
61805;BME280;47725;47.912;7.356;2023-11-19T01:51:31;99275.95;;;15.98;55.85
61805;BME280;47725;47.912;7.356;2023-11-19T01:55:31;99276.51;;;15.97;56.37
61805;BME280;47725;47.912;7.356;2023-11-19T01:59:31;99274.24;;;15.93;57.55
61805;BME280;47725;47.912;7.356;2023-11-19T02:03:31;99272.49;;;15.85;58.33
61805;BME280;47725;47.912;7.356;2023-11-19T02:07:31;99273.21;;;15.76;59.22
61805;BME280;47725;47.912;7.356;2023-11-19T02:11:31;99272.90;;;15.70;58.96
61805;BME280;47725;47.912;7.356;2023-11-19T02:15:31;99275.87;;;15.66;59.20
61805;BME280;47725;47.912;7.356;2023-11-19T02:19:31;99280.38;;;15.63;59.28
61805;BME280;47725;47.912;7.356;2023-11-19T02:23:31;99281.34;;;15.62;59.40
61805;BME280;47725;47.912;7.356;2023-11-19T02:31:31;99282.21;;;15.59;59.79
61805;BME280;47725;47.912;7.356;2023-11-19T02:35:31;99284.01;;;15.59;59.91
61805;BME280;47725;47.912;7.356;2023-11-19T02:39:31;99288.28;;;15.61;59.58
61805;BME280;47725;47.912;7.356;2023-11-19T02:43:31;99289.64;;;15.64;59.54
61805;BME280;47725;47.912;7.356;2023-11-19T02:47:31;99288.73;;;15.67;59.40
61805;BME280;47725;47.912;7.356;2023-11-19T02:51:31;99289.56;;;15.67;59.87
61805;BME280;47725;47.912;7.356;2023-11-19T02:55:31;99291.33;;;15.69;59.60
61805;BME280;47725;47.912;7.356;2023-11-19T02:59:31;99291.83;;;15.71;59.63
61805;BME280;47725;47.912;7.356;2023-11-19T03:03:31;99288.72;;;15.73;59.42
61805;BME280;47725;47.912;7.356;2023-11-19T03:07:31;99289.73;;;15.72;59.83
61805;BME280;47725;47.912;7.356;2023-11-19T03:11:31;99289.62;;;15.73;59.56
61805;BME280;47725;47.912;7.356;2023-11-19T03:15:31;99288.19;;;15.75;59.52
61805;BME280;47725;47.912;7.356;2023-11-19T03:19:31;99285.91;;;15.78;59.29
61805;BME280;47725;47.912;7.356;2023-11-19T03:23:31;99284.04;;;15.78;59.44
61805;BME280;47725;47.912;7.356;2023-11-19T03:27:31;99286.33;;;15.80;59.61
61805;BME280;47725;47.912;7.356;2023-11-19T03:31:31;99287.50;;;15.81;59.74
61805;BME280;47725;47.912;7.356;2023-11-19T03:35:31;99291.56;;;15.83;59.64
61805;BME280;47725;47.912;7.356;2023-11-19T03:39:31;99293.06;;;15.86;59.60
61805;BME280;47725;47.912;7.356;2023-11-19T03:43:31;99290.90;;;15.88;59.49
61805;BME280;47725;47.912;7.356;2023-11-19T03:47:31;99290.17;;;15.90;59.56
61805;BME280;47725;47.912;7.356;2023-11-19T03:51:31;99288.43;;;15.92;59.62
61805;BME280;47725;47.912;7.356;2023-11-19T03:55:31;99283.84;;;15.94;59.66
61805;BME280;47725;47.912;7.356;2023-11-19T03:59:31;99280.72;;;15.97;59.47
61805;BME280;47725;47.912;7.356;2023-11-19T04:03:31;99280.39;;;16.00;59.39
61805;BME280;47725;47.912;7.356;2023-11-19T04:07:31;99278.42;;;16.03;59.40
61805;BME280;47725;47.912;7.356;2023-11-19T04:11:31;99278.19;;;16.04;59.75
61805;BME280;47725;47.912;7.356;2023-11-19T04:15:31;99277.15;;;16.06;59.75
61805;BME280;47725;47.912;7.356;2023-11-19T04:19:31;99280.36;;;16.08;59.72
61805;BME280;47725;47.912;7.356;2023-11-19T04:23:31;99284.92;;;16.12;59.67
61805;BME280;47725;47.912;7.356;2023-11-19T04:27:31;99288.48;;;16.14;59.82
61805;BME280;47725;47.912;7.356;2023-11-19T04:31:31;99291.31;;;16.15;59.81
61805;BME280;47725;47.912;7.356;2023-11-19T04:35:31;99293.36;;;16.16;59.87
61805;BME280;47725;47.912;7.356;2023-11-19T04:39:31;99294.37;;;16.20;59.53
61805;BME280;47725;47.912;7.356;2023-11-19T04:43:31;99293.63;;;16.23;59.66
61805;BME280;47725;47.912;7.356;2023-11-19T04:47:31;99297.96;;;16.25;59.89
61805;BME280;47725;47.912;7.356;2023-11-19T04:51:31;99298.32;;;16.27;59.76
61805;BME280;47725;47.912;7.356;2023-11-19T04:55:31;99296.86;;;16.28;59.81
61805;BME280;47725;47.912;7.356;2023-11-19T04:59:31;99293.89;;;16.31;59.61
61805;BME280;47725;47.912;7.356;2023-11-19T05:03:31;99292.19;;;16.32;59.89
61805;BME280;47725;47.912;7.356;2023-11-19T05:07:31;99293.98;;;16.34;59.67
61805;BME280;47725;47.912;7.356;2023-11-19T05:11:31;99296.83;;;16.36;59.74
61805;BME280;47725;47.912;7.356;2023-11-19T05:15:31;99300.41;;;16.40;59.60
61805;BME280;47725;47.912;7.356;2023-11-19T05:19:31;99305.36;;;16.44;59.70
61805;BME280;47725;47.912;7.356;2023-11-19T05:23:31;99305.06;;;16.45;60.13
61805;BME280;47725;47.912;7.356;2023-11-19T05:27:31;99302.64;;;16.49;59.79
61805;BME280;47725;47.912;7.356;2023-11-19T05:31:31;99297.99;;;16.50;60.06
61805;BME280;47725;47.912;7.356;2023-11-19T05:35:31;99297.27;;;16.52;60.15
61805;BME280;47725;47.912;7.356;2023-11-19T05:39:31;99296.73;;;16.52;60.19
61805;BME280;47725;47.912;7.356;2023-11-19T05:43:33;99296.08;;;16.54;60.12
61805;BME280;47725;47.912;7.356;2023-11-19T05:47:31;99297.16;;;16.56;60.14
61805;BME280;47725;47.912;7.356;2023-11-19T05:51:31;99299.75;;;16.59;60.00
61805;BME280;47725;47.912;7.356;2023-11-19T05:55:33;99301.84;;;16.63;60.10
61805;BME280;47725;47.912;7.356;2023-11-19T05:59:31;99302.84;;;16.65;60.12
61805;BME280;47725;47.912;7.356;2023-11-19T06:03:31;99302.91;;;16.70;59.86
61805;BME280;47725;47.912;7.356;2023-11-19T06:07:31;99304.11;;;16.75;59.75
61805;BME280;47725;47.912;7.356;2023-11-19T06:11:31;99305.31;;;16.78;59.89
61805;BME280;47725;47.912;7.356;2023-11-19T06:15:31;99304.36;;;16.81;59.93
61805;BME280;47725;47.912;7.356;2023-11-19T06:19:31;99304.41;;;16.86;59.68
61805;BME280;47725;47.912;7.356;2023-11-19T06:23:31;99303.83;;;16.90;59.42
61805;BME280;47725;47.912;7.356;2023-11-19T06:27:31;99303.45;;;16.92;59.95
61805;BME280;47725;47.912;7.356;2023-11-19T06:31:31;99299.22;;;16.95;59.63
61805;BME280;47725;47.912;7.356;2023-11-19T06:35:31;99297.02;;;16.97;59.94
61805;BME280;47725;47.912;7.356;2023-11-19T06:39:31;99293.27;;;16.99;59.68
61805;BME280;47725;47.912;7.356;2023-11-19T06:43:31;99291.46;;;17.01;59.81
61805;BME280;47725;47.912;7.356;2023-11-19T06:47:31;99290.75;;;17.01;59.70
61805;BME280;47725;47.912;7.356;2023-11-19T06:51:31;99292.56;;;17.03;59.77
61805;BME280;47725;47.912;7.356;2023-11-19T06:55:31;99294.61;;;17.04;59.69
61805;BME280;47725;47.912;7.356;2023-11-19T06:59:31;99295.08;;;17.05;59.74
61805;BME280;47725;47.912;7.356;2023-11-19T07:03:30;99296.94;;;17.05;59.81
61805;BME280;47725;47.912;7.356;2023-11-19T07:07:31;99297.27;;;17.04;60.04
61805;BME280;47725;47.912;7.356;2023-11-19T07:11:30;99298.27;;;17.05;59.70
61805;BME280;47725;47.912;7.356;2023-11-19T07:15:31;99299.41;;;17.07;59.63
61805;BME280;47725;47.912;7.356;2023-11-19T07:19:30;99302.50;;;17.08;59.51
61805;BME280;47725;47.912;7.356;2023-11-19T07:23:30;99308.95;;;17.09;59.73
61805;BME280;47725;47.912;7.356;2023-11-19T07:27:30;99312.28;;;17.10;59.80
61805;BME280;47725;47.912;7.356;2023-11-19T07:31:30;99315.14;;;17.13;59.35
61805;BME280;47725;47.912;7.356;2023-11-19T07:35:31;99317.89;;;17.16;59.41
61805;BME280;47725;47.912;7.356;2023-11-19T07:39:30;99320.70;;;17.18;59.53
61805;BME280;47725;47.912;7.356;2023-11-19T07:43:31;99325.01;;;17.20;59.48
61805;BME280;47725;47.912;7.356;2023-11-19T07:47:30;99329.97;;;17.23;59.40
61805;BME280;47725;47.912;7.356;2023-11-19T07:51:30;99334.19;;;17.25;59.23
61805;BME280;47725;47.912;7.356;2023-11-19T07:55:30;99341.94;;;17.28;59.20
61805;BME280;47725;47.912;7.356;2023-11-19T07:59:30;99348.10;;;17.31;59.04
61805;BME280;47725;47.912;7.356;2023-11-19T08:03:30;99353.93;;;17.36;59.01
61805;BME280;47725;47.912;7.356;2023-11-19T08:07:30;99356.00;;;17.40;58.68
61805;BME280;47725;47.912;7.356;2023-11-19T08:11:30;99357.28;;;17.43;58.87
61805;BME280;47725;47.912;7.356;2023-11-19T08:15:30;99357.37;;;17.47;58.88
61805;BME280;47725;47.912;7.356;2023-11-19T08:19:30;99359.86;;;17.50;58.80
61805;BME280;47725;47.912;7.356;2023-11-19T08:23:30;99360.80;;;17.52;58.95
61805;BME280;47725;47.912;7.356;2023-11-19T08:27:30;99358.04;;;17.55;58.54
61805;BME280;47725;47.912;7.356;2023-11-19T08:31:30;99357.50;;;17.57;58.77
61805;BME280;47725;47.912;7.356;2023-11-19T08:35:30;99358.23;;;17.59;58.89
61805;BME280;47725;47.912;7.356;2023-11-19T08:39:30;99358.26;;;17.62;58.42
61805;BME280;47725;47.912;7.356;2023-11-19T08:43:30;99356.13;;;17.62;58.80
61805;BME280;47725;47.912;7.356;2023-11-19T08:47:30;99353.97;;;17.65;58.61
61805;BME280;47725;47.912;7.356;2023-11-19T08:51:30;99352.90;;;17.67;58.34
61805;BME280;47725;47.912;7.356;2023-11-19T08:55:30;99351.78;;;17.70;58.45
61805;BME280;47725;47.912;7.356;2023-11-19T08:59:30;99352.06;;;17.74;58.38
61805;BME280;47725;47.912;7.356;2023-11-19T09:03:31;99352.01;;;17.77;58.36
61805;BME280;47725;47.912;7.356;2023-11-19T09:07:31;99354.72;;;17.79;58.63
61805;BME280;47725;47.912;7.356;2023-11-19T09:11:31;99357.35;;;17.81;58.80
61805;BME280;47725;47.912;7.356;2023-11-19T09:15:30;99360.19;;;17.84;58.17
61805;BME280;47725;47.912;7.356;2023-11-19T09:19:32;99364.09;;;17.87;58.32
61805;BME280;47725;47.912;7.356;2023-11-19T09:23:30;99366.03;;;17.92;58.19
61805;BME280;47725;47.912;7.356;2023-11-19T09:27:30;99370.10;;;17.96;58.11
61805;BME280;47725;47.912;7.356;2023-11-19T09:31:30;99371.31;;;18.00;58.15
61805;BME280;47725;47.912;7.356;2023-11-19T09:35:30;99374.87;;;18.06;57.74
61805;BME280;47725;47.912;7.356;2023-11-19T09:39:30;99375.10;;;18.12;57.46
61805;BME280;47725;47.912;7.356;2023-11-19T09:43:30;99374.80;;;18.17;57.69
61805;BME280;47725;47.912;7.356;2023-11-19T09:47:30;99378.30;;;18.22;57.65
61805;BME280;47725;47.912;7.356;2023-11-19T09:51:30;99380.22;;;18.26;57.52
61805;BME280;47725;47.912;7.356;2023-11-19T09:55:30;99382.95;;;18.30;57.47
61805;BME280;47725;47.912;7.356;2023-11-19T09:59:30;99384.56;;;18.34;57.46
61805;BME280;47725;47.912;7.356;2023-11-19T10:03:32;99385.64;;;18.38;57.39
61805;BME280;47725;47.912;7.356;2023-11-19T10:07:30;99383.03;;;18.41;57.52
61805;BME280;47725;47.912;7.356;2023-11-19T10:11:30;99382.86;;;18.45;56.97
61805;BME280;47725;47.912;7.356;2023-11-19T10:15:32;99379.86;;;18.50;57.11
61805;BME280;47725;47.912;7.356;2023-11-19T10:19:31;99379.88;;;18.56;56.86
61805;BME280;47725;47.912;7.356;2023-11-19T10:23:30;99378.28;;;18.61;56.91
61805;BME280;47725;47.912;7.356;2023-11-19T10:27:30;99378.15;;;18.66;56.64
61805;BME280;47725;47.912;7.356;2023-11-19T10:31:30;99378.09;;;18.68;56.63
61805;BME280;47725;47.912;7.356;2023-11-19T10:35:30;99375.92;;;18.66;57.25
61805;BME280;47725;47.912;7.356;2023-11-19T10:43:31;99368.45;;;18.66;56.61
61805;BME280;47725;47.912;7.356;2023-11-19T10:47:30;99364.10;;;18.68;56.64
61805;BME280;47725;47.912;7.356;2023-11-19T10:51:30;99359.22;;;18.67;56.65
61805;BME280;47725;47.912;7.356;2023-11-19T10:55:31;99355.18;;;18.66;56.76
61805;BME280;47725;47.912;7.356;2023-11-19T10:59:31;99348.69;;;18.63;57.11
61805;BME280;47725;47.912;7.356;2023-11-19T11:03:31;99342.24;;;18.60;56.95
61805;BME280;47725;47.912;7.356;2023-11-19T11:07:30;99339.20;;;18.59;57.03
61805;BME280;47725;47.912;7.356;2023-11-19T11:11:30;99337.52;;;18.58;56.84
61805;BME280;47725;47.912;7.356;2023-11-19T11:15:30;99334.65;;;18.58;56.54
61805;BME280;47725;47.912;7.356;2023-11-19T11:19:30;99331.84;;;18.61;56.26
61805;BME280;47725;47.912;7.356;2023-11-19T11:23:37;99328.83;;;18.60;56.73
61805;BME280;47725;47.912;7.356;2023-11-19T11:27:43;99326.39;;;18.62;56.60
61805;BME280;47725;47.912;7.356;2023-11-19T11:35:37;99321.77;;;18.66;56.38
61805;BME280;47725;47.912;7.356;2023-11-19T11:39:30;99319.62;;;18.68;56.23
61805;BME280;47725;47.912;7.356;2023-11-19T11:43:45;99317.77;;;18.72;56.21
61805;BME280;47725;47.912;7.356;2023-11-19T11:59:45;99308.75;;;18.77;56.32
61805;BME280;47725;47.912;7.356;2023-11-19T12:03:31;99305.86;;;18.77;56.49
61805;BME280;47725;47.912;7.356;2023-11-19T12:07:30;99303.79;;;18.78;56.27
61805;BME280;47725;47.912;7.356;2023-11-19T12:11:30;99303.74;;;18.80;56.00
61805;BME280;47725;47.912;7.356;2023-11-19T12:15:30;99304.96;;;18.81;56.24
61805;BME280;47725;47.912;7.356;2023-11-19T12:19:30;99307.19;;;18.81;56.48
61805;BME280;47725;47.912;7.356;2023-11-19T12:23:31;99308.03;;;18.80;56.46
61805;BME280;47725;47.912;7.356;2023-11-19T12:27:30;99307.11;;;18.81;56.35
61805;BME280;47725;47.912;7.356;2023-11-19T12:31:30;99309.16;;;18.82;56.36
61805;BME280;47725;47.912;7.356;2023-11-19T12:35:30;99307.54;;;18.83;56.39
61805;BME280;47725;47.912;7.356;2023-11-19T12:39:30;99306.41;;;18.85;56.17
61805;BME280;47725;47.912;7.356;2023-11-19T12:43:30;99302.81;;;18.87;55.87
61805;BME280;47725;47.912;7.356;2023-11-19T12:47:30;99301.98;;;18.88;56.07
61805;BME280;47725;47.912;7.356;2023-11-19T12:51:30;99298.77;;;18.92;55.43
61805;BME280;47725;47.912;7.356;2023-11-19T12:55:30;99297.55;;;18.95;55.23
61805;BME280;47725;47.912;7.356;2023-11-19T12:59:30;99295.59;;;18.98;55.32
61805;BME280;47725;47.912;7.356;2023-11-19T13:03:31;99292.97;;;19.01;55.15
61805;BME280;47725;47.912;7.356;2023-11-19T13:07:30;99292.30;;;19.03;55.28
61805;BME280;47725;47.912;7.356;2023-11-19T13:11:34;99292.71;;;19.06;55.16
61805;BME280;47725;47.912;7.356;2023-11-19T13:15:30;99294.29;;;19.09;54.68
61805;BME280;47725;47.912;7.356;2023-11-19T13:19:30;99293.24;;;19.11;54.67
61805;BME280;47725;47.912;7.356;2023-11-19T13:23:30;99291.99;;;19.12;53.01
61805;BME280;47725;47.912;7.356;2023-11-19T13:27:30;99289.51;;;19.13;52.73
61805;BME280;47725;47.912;7.356;2023-11-19T13:31:30;99284.68;;;19.15;53.05
61805;BME280;47725;47.912;7.356;2023-11-19T13:35:30;99277.17;;;19.15;52.45
61805;BME280;47725;47.912;7.356;2023-11-19T13:39:30;99270.83;;;19.15;53.28
61805;BME280;47725;47.912;7.356;2023-11-19T13:43:30;99263.98;;;19.15;53.47
61805;BME280;47725;47.912;7.356;2023-11-19T13:47:30;99258.34;;;19.13;53.95
61805;BME280;47725;47.912;7.356;2023-11-19T13:51:30;99252.15;;;19.09;54.05
61805;BME280;47725;47.912;7.356;2023-11-19T13:55:30;99247.29;;;19.08;54.04
61805;BME280;47725;47.912;7.356;2023-11-19T13:59:33;99245.76;;;19.07;54.12
61805;BME280;47725;47.912;7.356;2023-11-19T14:03:30;99243.48;;;19.07;53.69
61805;BME280;47725;47.912;7.356;2023-11-19T14:07:30;99240.45;;;19.06;53.87
61805;BME280;47725;47.912;7.356;2023-11-19T14:11:30;99238.45;;;19.07;53.26
61805;BME280;47725;47.912;7.356;2023-11-19T14:15:30;99235.02;;;19.11;52.86
61805;BME280;47725;47.912;7.356;2023-11-19T14:19:30;99232.40;;;19.17;52.53
61805;BME280;47725;47.912;7.356;2023-11-19T14:23:30;99231.95;;;19.25;52.01
61805;BME280;47725;47.912;7.356;2023-11-19T14:27:30;99230.74;;;19.30;51.94
61805;BME280;47725;47.912;7.356;2023-11-19T14:31:30;99229.74;;;19.33;51.72
61805;BME280;47725;47.912;7.356;2023-11-19T14:35:30;99227.95;;;19.34;51.88
61805;BME280;47725;47.912;7.356;2023-11-19T14:39:30;99229.00;;;19.35;51.08
61805;BME280;47725;47.912;7.356;2023-11-19T14:43:30;99228.28;;;19.35;51.59
61805;BME280;47725;47.912;7.356;2023-11-19T14:47:30;99228.44;;;19.37;51.17
61805;BME280;47725;47.912;7.356;2023-11-19T14:51:30;99228.28;;;19.35;51.05
61805;BME280;47725;47.912;7.356;2023-11-19T14:55:30;99228.77;;;19.32;50.83
61805;BME280;47725;47.912;7.356;2023-11-19T14:59:30;99228.38;;;19.29;51.15
61805;BME280;47725;47.912;7.356;2023-11-19T15:03:30;99229.52;;;19.26;51.38
61805;BME280;47725;47.912;7.356;2023-11-19T15:07:30;99230.35;;;19.23;51.20
61805;BME280;47725;47.912;7.356;2023-11-19T15:11:30;99231.13;;;19.19;51.25
61805;BME280;47725;47.912;7.356;2023-11-19T15:15:30;99228.99;;;19.15;51.32
61805;BME280;47725;47.912;7.356;2023-11-19T15:19:30;99228.44;;;19.11;50.02
61805;BME280;47725;47.912;7.356;2023-11-19T15:23:30;99227.75;;;19.06;50.42
61805;BME280;47725;47.912;7.356;2023-11-19T15:27:30;99227.91;;;19.01;50.79
61805;BME280;47725;47.912;7.356;2023-11-19T15:31:30;99227.98;;;18.98;50.42
61805;BME280;47725;47.912;7.356;2023-11-19T15:35:30;99226.76;;;18.94;49.97
61805;BME280;47725;47.912;7.356;2023-11-19T15:39:30;99223.22;;;18.89;50.07
61805;BME280;47725;47.912;7.356;2023-11-19T15:43:30;99220.42;;;18.84;50.22
61805;BME280;47725;47.912;7.356;2023-11-19T15:47:30;99218.47;;;18.79;50.21
61805;BME280;47725;47.912;7.356;2023-11-19T15:51:30;99215.24;;;18.74;49.85
61805;BME280;47725;47.912;7.356;2023-11-19T15:55:30;99211.75;;;18.67;49.83
61805;BME280;47725;47.912;7.356;2023-11-19T15:59:30;99209.59;;;18.62;49.65
61805;BME280;47725;47.912;7.356;2023-11-19T16:03:30;99206.03;;;18.59;49.36
61805;BME280;47725;47.912;7.356;2023-11-19T16:07:30;99206.21;;;18.55;49.01
61805;BME280;47725;47.912;7.356;2023-11-19T16:11:30;99205.04;;;18.50;49.80
61805;BME280;47725;47.912;7.356;2023-11-19T16:15:30;99202.32;;;18.47;50.26
61805;BME280;47725;47.912;7.356;2023-11-19T16:19:30;99199.34;;;18.46;50.46
61805;BME280;47725;47.912;7.356;2023-11-19T16:23:30;99197.14;;;18.42;51.46
61805;BME280;47725;47.912;7.356;2023-11-19T16:27:30;99198.74;;;18.39;51.48
61805;BME280;47725;47.912;7.356;2023-11-19T16:31:30;99200.34;;;18.37;51.53
61805;BME280;47725;47.912;7.356;2023-11-19T16:35:30;99201.95;;;18.35;51.87
61805;BME280;47725;47.912;7.356;2023-11-19T16:39:30;99204.26;;;18.32;52.49
61805;BME280;47725;47.912;7.356;2023-11-19T16:43:30;99207.70;;;18.29;52.62
61805;BME280;47725;47.912;7.356;2023-11-19T16:47:30;99212.84;;;18.27;52.66
61805;BME280;47725;47.912;7.356;2023-11-19T16:51:30;99219.86;;;18.25;52.42
61805;BME280;47725;47.912;7.356;2023-11-19T16:55:30;99224.70;;;18.25;51.64
61805;BME280;47725;47.912;7.356;2023-11-19T16:59:30;99228.12;;;18.24;51.49
61805;BME280;47725;47.912;7.356;2023-11-19T17:03:30;99231.08;;;18.21;51.44
61805;BME280;47725;47.912;7.356;2023-11-19T17:07:30;99231.31;;;18.21;50.35
61805;BME280;47725;47.912;7.356;2023-11-19T17:11:30;99231.34;;;18.20;50.30
61805;BME280;47725;47.912;7.356;2023-11-19T17:15:30;99232.40;;;18.21;49.00
61805;BME280;47725;47.912;7.356;2023-11-19T17:19:30;99234.97;;;18.23;48.77
61805;BME280;47725;47.912;7.356;2023-11-19T17:23:30;99240.16;;;18.23;48.71
61805;BME280;47725;47.912;7.356;2023-11-19T17:27:30;99244.59;;;18.23;49.42
61805;BME280;47725;47.912;7.356;2023-11-19T17:31:33;99248.72;;;18.23;49.21
61805;BME280;47725;47.912;7.356;2023-11-19T17:35:30;99250.27;;;18.23;49.79
61805;BME280;47725;47.912;7.356;2023-11-19T17:39:30;99251.42;;;18.25;49.62
61805;BME280;47725;47.912;7.356;2023-11-19T17:43:30;99251.73;;;18.24;50.24
61805;BME280;47725;47.912;7.356;2023-11-19T17:47:30;99252.72;;;18.23;50.47
61805;BME280;47725;47.912;7.356;2023-11-19T17:51:30;99253.42;;;18.21;50.77
61805;BME280;47725;47.912;7.356;2023-11-19T17:55:30;99252.06;;;18.19;50.52
61805;BME280;47725;47.912;7.356;2023-11-19T17:59:30;99251.39;;;18.16;50.97
61805;BME280;47725;47.912;7.356;2023-11-19T18:03:30;99254.71;;;18.13;51.11
61805;BME280;47725;47.912;7.356;2023-11-19T18:07:30;99260.78;;;18.10;50.94
61805;BME280;47725;47.912;7.356;2023-11-19T18:11:35;99266.13;;;18.08;51.13
61805;BME280;47725;47.912;7.356;2023-11-19T18:15:30;99270.81;;;18.06;51.19
61805;BME280;47725;47.912;7.356;2023-11-19T18:19:30;99277.22;;;18.06;50.89
61805;BME280;47725;47.912;7.356;2023-11-19T18:23:30;99283.14;;;18.06;50.88
61805;BME280;47725;47.912;7.356;2023-11-19T18:27:30;99287.84;;;18.07;50.90
61805;BME280;47725;47.912;7.356;2023-11-19T18:31:30;99291.27;;;18.06;51.21
61805;BME280;47725;47.912;7.356;2023-11-19T18:35:30;99293.22;;;18.05;51.27
61805;BME280;47725;47.912;7.356;2023-11-19T18:39:30;99293.83;;;18.05;50.43
61805;BME280;47725;47.912;7.356;2023-11-19T18:43:30;99295.71;;;18.06;50.55
61805;BME280;47725;47.912;7.356;2023-11-19T18:47:30;99297.12;;;18.08;50.15
61805;BME280;47725;47.912;7.356;2023-11-19T18:51:30;99298.61;;;18.08;50.97
61805;BME280;47725;47.912;7.356;2023-11-19T18:55:30;99300.75;;;18.08;51.27
61805;BME280;47725;47.912;7.356;2023-11-19T18:59:30;99303.86;;;18.08;51.33
61805;BME280;47725;47.912;7.356;2023-11-19T19:03:30;99307.62;;;18.07;51.52
61805;BME280;47725;47.912;7.356;2023-11-19T19:07:30;99309.38;;;18.07;51.51
61805;BME280;47725;47.912;7.356;2023-11-19T19:11:30;99310.53;;;18.08;51.38
61805;BME280;47725;47.912;7.356;2023-11-19T19:15:30;99312.72;;;18.08;51.44
61805;BME280;47725;47.912;7.356;2023-11-19T19:19:30;99314.29;;;18.07;51.69
61805;BME280;47725;47.912;7.356;2023-11-19T19:23:30;99314.11;;;18.07;51.80
61805;BME280;47725;47.912;7.356;2023-11-19T19:27:30;99313.96;;;18.06;51.93
61805;BME280;47725;47.912;7.356;2023-11-19T19:31:30;99313.78;;;18.05;51.91
61805;BME280;47725;47.912;7.356;2023-11-19T19:35:30;99313.19;;;18.05;51.65
61805;BME280;47725;47.912;7.356;2023-11-19T19:39:30;99315.89;;;18.04;51.83
61805;BME280;47725;47.912;7.356;2023-11-19T19:43:30;99315.75;;;18.02;52.13
61805;BME280;47725;47.912;7.356;2023-11-19T19:47:30;99317.19;;;17.99;52.39
61805;BME280;47725;47.912;7.356;2023-11-19T19:51:30;99319.90;;;17.98;52.26
61805;BME280;47725;47.912;7.356;2023-11-19T19:55:30;99323.03;;;17.98;52.14
61805;BME280;47725;47.912;7.356;2023-11-19T19:59:30;99325.33;;;17.97;52.33
61805;BME280;47725;47.912;7.356;2023-11-19T20:03:30;99328.34;;;17.96;52.48
61805;BME280;47725;47.912;7.356;2023-11-19T20:07:30;99329.00;;;17.96;52.25
61805;BME280;47725;47.912;7.356;2023-11-19T20:11:30;99334.33;;;17.95;52.47
61805;BME280;47725;47.912;7.356;2023-11-19T20:15:30;99337.13;;;17.95;51.80
61805;BME280;47725;47.912;7.356;2023-11-19T20:19:30;99341.24;;;17.93;52.43
61805;BME280;47725;47.912;7.356;2023-11-19T20:23:30;99346.14;;;17.93;52.30
61805;BME280;47725;47.912;7.356;2023-11-19T20:27:30;99347.97;;;17.92;52.62
61805;BME280;47725;47.912;7.356;2023-11-19T20:31:30;99347.86;;;17.91;52.22
61805;BME280;47725;47.912;7.356;2023-11-19T20:35:30;99347.31;;;17.91;51.92
61805;BME280;47725;47.912;7.356;2023-11-19T20:39:30;99346.00;;;17.91;51.36
61805;BME280;47725;47.912;7.356;2023-11-19T20:43:30;99344.92;;;17.91;50.70
61805;BME280;47725;47.912;7.356;2023-11-19T20:47:30;99345.00;;;17.90;50.53
61805;BME280;47725;47.912;7.356;2023-11-19T20:51:30;99346.06;;;17.91;49.38
61805;BME280;47725;47.912;7.356;2023-11-19T20:55:30;99347.03;;;17.90;49.35
61805;BME280;47725;47.912;7.356;2023-11-19T20:59:30;99348.94;;;17.90;49.10
61805;BME280;47725;47.912;7.356;2023-11-19T21:03:30;99351.90;;;17.92;49.05
61805;BME280;47725;47.912;7.356;2023-11-19T21:07:30;99351.42;;;17.92;48.44
61805;BME280;47725;47.912;7.356;2023-11-19T21:11:30;99349.85;;;17.92;48.12
61805;BME280;47725;47.912;7.356;2023-11-19T21:15:30;99350.51;;;17.92;46.90
61805;BME280;47725;47.912;7.356;2023-11-19T21:19:30;99352.72;;;17.93;46.99
61805;BME280;47725;47.912;7.356;2023-11-19T21:23:30;99353.52;;;17.94;47.28
61805;BME280;47725;47.912;7.356;2023-11-19T21:27:30;99357.95;;;17.95;46.50
61805;BME280;47725;47.912;7.356;2023-11-19T21:31:30;99359.34;;;17.96;46.54
61805;BME280;47725;47.912;7.356;2023-11-19T21:35:30;99359.36;;;17.96;46.63